Time;durP1;ratioP1;P1;durP2;ratioP2;P2;SDS_P1;SDS_P2;PMS_P1;PMS_P2;Temp;Humidity;BMP_temperature;BMP_pressure;BME280_temperature;BME280_humidity;BME280_pressure;Samples;Min_cycle;Max_cycle;Signal;HPM_P1;HPM_P2
2022/07/13 00:00:49;;;;;;;2.88;0.68;;;11.90;99.90;;;;;;4937938;29;20031;-71
2022/07/13 00:03:16;;;;;;;2.20;0.50;;;12.00;99.90;;;;;;4955089;29;20027;-73
2022/07/13 00:05:43;;;;;;;4.53;1.08;;;12.10;99.90;;;;;;4954893;29;20058;-72
2022/07/13 00:08:11;;;;;;;2.33;0.80;;;12.30;99.90;;;;;;4937764;29;20404;-72
2022/07/13 00:10:38;;;;;;;1.17;0.60;;;12.40;99.90;;;;;;4937682;29;20038;-71
2022/07/13 00:13:06;;;;;;;2.30;0.70;;;12.50;99.90;;;;;;4954939;29;20457;-72
2022/07/13 00:15:33;;;;;;;2.70;0.65;;;12.60;99.90;;;;;;4954953;29;20019;-72
2022/07/13 00:18:01;;;;;;;1.98;0.60;;;12.70;99.90;;;;;;4954903;29;20019;-72
2022/07/13 00:20:28;;;;;;;1.83;0.75;;;12.80;99.90;;;;;;4954948;29;20035;-72
2022/07/13 00:22:56;;;;;;;0.68;0.30;;;12.90;99.90;;;;;;4954866;29;20023;-72
2022/07/13 00:25:23;;;;;;;2.95;0.57;;;12.70;99.90;;;;;;4954849;29;20026;-71
2022/07/13 00:27:51;;;;;;;1.17;0.57;;;12.60;99.90;;;;;;4954825;29;20476;-72
2022/07/13 00:30:18;;;;;;;0.93;0.47;;;12.60;99.90;;;;;;4954597;28;20023;-72
2022/07/13 00:32:45;;;;;;;2.50;0.57;;;12.60;99.90;;;;;;4954113;29;20027;-72
2022/07/13 00:35:13;;;;;;;1.20;0.55;;;12.70;99.90;;;;;;4954952;29;20024;-72
2022/07/13 00:37:40;;;;;;;2.17;0.85;;;12.70;99.90;;;;;;4954765;29;20075;-72
2022/07/13 00:40:08;;;;;;;2.50;0.40;;;12.80;99.90;;;;;;4954646;29;20019;-72
2022/07/13 00:42:35;;;;;;;0.95;0.40;;;12.90;99.90;;;;;;4954596;29;20023;-72
2022/07/13 00:45:03;;;;;;;1.23;0.57;;;13.00;99.90;;;;;;4954737;29;20027;-72
2022/07/13 00:47:32;;;;;;;1.48;0.40;;;13.00;99.90;;;;;;4954710;29;20027;-72
2022/07/13 00:50:09;;;;;;;2.00;0.57;;;13.00;99.90;;;;;;4937267;29;20369;-72
2022/07/13 00:52:37;;;;;;;1.65;0.70;;;13.10;99.90;;;;;;4937348;29;20041;-72
2022/07/13 00:55:07;;;;;;;1.88;0.63;;;13.30;99.90;;;;;;4937166;29;20071;-72
2022/07/13 00:57:36;;;;;;;2.35;0.45;;;13.30;99.90;;;;;;4954772;29;20471;-72
2022/07/13 01:00:10;;;;;;;1.45;0.40;;;13.60;99.90;;;;;;4954407;29;20483;-72
2022/07/13 01:02:39;;;;;;;2.92;0.70;;;13.90;99.90;;;;;;4955069;29;20522;-72
2022/07/13 01:05:07;;;;;;;2.60;0.80;;;14.00;99.90;;;;;;4936711;29;20027;-72
2022/07/13 01:07:34;;;;;;;1.20;0.73;;;14.10;99.90;;;;;;4954460;29;20027;-72
2022/07/13 01:10:06;;;;;;;1.30;0.43;;;14.00;99.90;;;;;;4937110;29;20035;-72
2022/07/13 01:12:35;;;;;;;2.75;0.47;;;14.00;99.90;;;;;;4954750;29;20090;-72
2022/07/13 01:15:04;;;;;;;2.08;0.50;;;13.90;99.90;;;;;;4954201;29;20087;-72
2022/07/13 01:17:34;;;;;;;5.38;0.95;;;13.80;99.90;;;;;;4954331;29;20098;-72
2022/07/13 01:20:02;;;;;;;1.63;0.50;;;13.90;99.90;;;;;;4954318;29;20556;-71
2022/07/13 01:22:35;;;;;;;1.38;0.50;;;13.90;99.90;;;;;;4954440;29;20158;-71
2022/07/13 01:25:05;;;;;;;3.15;0.43;;;14.10;99.90;;;;;;4937222;29;20036;-72
2022/07/13 01:27:36;;;;;;;2.85;0.60;;;14.10;99.90;;;;;;4954402;29;20059;-72
2022/07/13 01:30:05;;;;;;;2.92;0.60;;;14.10;99.90;;;;;;4954452;29;20030;-72
2022/07/13 01:32:52;;;;;;;2.03;0.70;;;14.30;99.90;;;;;;4936882;29;20075;-72
2022/07/13 01:35:23;;;;;;;1.73;0.70;;;14.10;99.90;;;;;;4954270;29;20023;-72
2022/07/13 01:37:50;;;;;;;;;;;14.30;99.90;;;;;;4954822;29;20027;-72
2022/07/13 01:40:18;;;;;;;3.47;1.13;;;14.40;99.90;;;;;;4936667;29;19906;-72
2022/07/13 01:42:51;;;;;;;1.58;0.52;;;14.40;99.90;;;;;;4937715;29;20059;-72
2022/07/13 01:45:22;;;;;;;2.83;1.00;;;14.40;99.90;;;;;;4957738;29;20057;-72
2022/07/13 01:47:52;;;;;;;2.88;0.98;;;14.50;99.90;;;;;;4940341;29;20031;-72
2022/07/13 01:50:21;;;;;;;1.83;0.98;;;14.70;99.90;;;;;;4940259;29;20020;-72
2022/07/13 01:52:50;;;;;;;2.15;0.55;;;14.70;99.90;;;;;;4957957;29;20023;-72
2022/07/13 01:55:17;;;;;;;5.45;0.77;;;14.40;99.90;;;;;;4957389;29;20099;-72
2022/07/13 01:57:45;;;;;;;2.80;1.13;;;14.40;99.90;;;;;;4957653;29;20490;-72
2022/07/13 02:00:21;;;;;;;3.83;0.70;;;14.40;99.90;;;;;;4957341;29;20102;-72
2022/07/13 02:02:50;;;;;;;1.92;0.60;;;14.50;99.90;;;;;;4957329;29;20583;-72
2022/07/13 02:05:18;;;;;;;1.45;0.60;;;14.40;99.90;;;;;;4957160;29;20046;-72
2022/07/13 02:07:46;;;;;;;1.50;0.50;;;14.50;99.90;;;;;;4957205;29;20384;-73
2022/07/13 02:10:13;;;;;;;2.05;0.70;;;14.40;99.90;;;;;;4957203;29;20140;-73
2022/07/13 02:12:41;;;;;;;2.40;0.80;;;14.40;99.90;;;;;;4957272;29;20020;-72
2022/07/13 02:15:10;;;;;;;2.63;0.77;;;14.30;99.90;;;;;;4957193;29;20030;-72
2022/07/13 02:17:38;;;;;;;2.88;0.90;;;14.30;99.90;;;;;;4957091;29;20019;-72
2022/07/13 02:20:06;;;;;;;4.63;1.25;;;14.10;99.90;;;;;;4956978;29;20019;-72
2022/07/13 02:22:46;;;;;;;2.67;1.02;;;14.20;99.90;;;;;;4957029;29;20032;-72
2022/07/13 02:25:15;;;;;;;2.80;0.90;;;14.20;99.90;;;;;;4939719;29;20073;-74
2022/07/13 02:27:44;;;;;;;2.47;0.65;;;14.30;99.90;;;;;;4939532;29;20052;-74
2022/07/13 02:30:13;;;;;;;3.35;1.00;;;14.30;99.90;;;;;;4939580;29;20027;-75
2022/07/13 02:32:42;;;;;;;2.75;1.08;;;14.30;99.90;;;;;;4956884;29;20050;-75
2022/07/13 02:35:10;;;;;;;2.85;0.90;;;14.40;99.90;;;;;;4956868;29;20031;-74
2022/07/13 02:37:39;;;;;;;1.88;0.90;;;14.40;99.90;;;;;;4939468;29;20024;-74
2022/07/13 02:40:09;;;;;;;7.40;1.10;;;14.50;99.90;;;;;;4939318;29;20062;-74
2022/07/13 02:42:36;;;;;;;3.78;0.95;;;14.90;99.90;;;;;;4939948;29;20031;-74
2022/07/13 02:45:05;;;;;;;2.45;1.00;;;14.80;99.90;;;;;;4939300;29;20038;-74
2022/07/13 02:47:32;;;;;;;3.70;0.93;;;14.80;99.90;;;;;;4956796;29;20023;-74
2022/07/13 02:50:00;;;;;;;3.22;0.70;;;14.70;99.90;;;;;;4938907;29;20433;-75
2022/07/13 02:52:27;;;;;;;2.60;0.80;;;14.90;99.90;;;;;;4956408;29;20027;-75
2022/07/13 02:54:54;;;;;;;1.35;0.60;;;14.80;99.90;;;;;;4955610;28;20082;-74
2022/07/13 02:57:22;;;;;;;2.42;0.80;;;14.70;99.90;;;;;;4956327;29;20019;-75
2022/07/13 02:59:49;;;;;;;4.72;0.85;;;14.70;99.90;;;;;;4939053;29;20059;-74
2022/07/13 03:02:18;;;;;;;2.65;0.88;;;14.70;99.90;;;;;;4938905;29;20568;-72
2022/07/13 03:04:46;;;;;;;1.30;0.70;;;15.10;99.90;;;;;;4956206;29;20019;-74
2022/07/13 03:07:13;;;;;;;1.88;0.70;;;15.10;99.90;;;;;;4955823;29;20043;-74
2022/07/13 03:09:40;;;;;;;3.70;0.70;;;15.00;99.90;;;;;;4938774;29;20032;-74
2022/07/13 03:12:08;;;;;;;1.55;0.60;;;15.00;99.90;;;;;;4956127;29;20436;-72
2022/07/13 03:14:35;;;;;;;2.85;1.25;;;14.90;99.90;;;;;;4956028;29;20066;-71
2022/07/13 03:17:02;;;;;;;2.45;0.70;;;14.90;99.90;;;;;;4938717;29;20428;-71
2022/07/13 03:19:30;;;;;;;3.47;1.35;;;14.70;99.90;;;;;;4955925;29;20098;-73
2022/07/13 03:21:57;;;;;;;3.00;0.65;;;14.60;99.90;;;;;;4938639;29;20514;-74
2022/07/13 03:24:24;;;;;;;3.55;0.70;;;14.40;99.90;;;;;;4956108;29;20493;-71
2022/07/13 03:26:52;;;;;;;1.77;0.50;;;14.40;99.90;;;;;;4955972;29;20027;-74
2022/07/13 03:29:19;;;;;;;3.25;0.90;;;14.40;99.90;;;;;;4955757;29;20019;-74
2022/07/13 03:31:46;;;;;;;1.70;0.70;;;14.40;99.90;;;;;;4955731;29;20019;-73
2022/07/13 03:34:14;;;;;;;1.85;0.50;;;14.40;99.90;;;;;;4938676;29;20055;-73
2022/07/13 03:36:41;;;;;;;1.63;0.60;;;14.50;99.90;;;;;;4938271;29;20046;-74
2022/07/13 03:39:08;;;;;;;2.15;1.08;;;14.50;99.90;;;;;;4955562;29;20111;-73
2022/07/13 03:41:36;;;;;;;2.45;0.70;;;14.60;99.90;;;;;;4955575;29;20023;-73
2022/07/13 03:44:03;;;;;;;1.30;0.52;;;14.70;99.90;;;;;;4955493;29;20031;-73
2022/07/13 03:46:31;;;;;;;2.13;0.40;;;14.80;99.90;;;;;;4956049;29;20031;-73
2022/07/13 03:48:58;;;;;;;1.85;0.60;;;14.70;99.90;;;;;;4955455;29;20082;-74
2022/07/13 03:51:25;;;;;;;2.42;0.70;;;14.80;99.90;;;;;;4955369;29;20039;-73
2022/07/13 03:53:53;;;;;;;1.90;0.60;;;14.90;99.90;;;;;;4955284;29;20094;-73
2022/07/13 03:56:20;;;;;;;3.25;0.70;;;15.00;99.90;;;;;;4955621;29;20023;-74
2022/07/13 03:58:47;;;;;;;1.98;0.80;;;15.10;99.90;;;;;;4955285;29;20051;-74
2022/07/13 04:01:15;;;;;;;2.55;0.70;;;15.20;99.90;;;;;;4955424;29;20447;-73
2022/07/13 04:03:42;;;;;;;3.33;1.13;;;15.20;99.90;;;;;;4955133;29;20058;-72
2022/07/13 04:06:10;;;;;;;1.70;0.60;;;15.00;99.90;;;;;;4937466;29;20134;-73
2022/07/13 04:08:37;;;;;;;1.83;0.60;;;14.80;99.90;;;;;;4937724;29;20036;-73
2022/07/13 04:11:04;;;;;;;1.00;0.70;;;14.70;99.90;;;;;;4954970;29;20058;-74
2022/07/13 04:13:32;;;;;;;0.98;0.40;;;14.40;99.90;;;;;;4937823;29;20475;-73
2022/07/13 04:15:59;;;;;;;2.00;1.10;;;14.30;99.90;;;;;;4937559;29;20023;-72
2022/07/13 04:18:27;;;;;;;1.17;0.75;;;14.20;99.90;;;;;;4937733;29;20031;-73
2022/07/13 04:20:54;;;;;;;1.70;0.80;;;14.20;99.90;;;;;;4955429;29;20023;-73
2022/07/13 04:23:21;;;;;;;1.00;0.45;;;14.10;99.90;;;;;;4937661;29;20096;-72
2022/07/13 04:25:48;;;;;;;2.28;0.70;;;14.10;99.90;;;;;;4937514;29;20039;-73
2022/07/13 04:28:16;;;;;;;2.03;0.90;;;14.10;99.90;;;;;;4954848;29;20392;-73
2022/07/13 04:30:43;;;;;;;1.80;0.90;;;14.10;99.90;;;;;;4954714;29;20031;-73
2022/07/13 04:33:10;;;;;;;2.97;0.60;;;14.10;99.90;;;;;;4937506;29;20030;-73
2022/07/13 04:35:38;;;;;;;1.40;0.50;;;14.10;99.90;;;;;;4937418;29;20369;-74
2022/07/13 04:38:05;;;;;;;1.95;0.75;;;14.10;99.90;;;;;;4954642;29;20023;-74
2022/07/13 04:40:32;;;;;;;2.80;0.90;;;14.10;99.90;;;;;;4954532;29;20038;-74
2022/07/13 04:43:00;;;;;;;1.98;0.70;;;14.10;99.90;;;;;;4937310;29;20555;-74
2022/07/13 04:45:27;;;;;;;2.17;0.93;;;14.20;99.90;;;;;;4954604;29;20110;-74
2022/07/13 04:47:54;;;;;;;1.55;0.70;;;14.30;99.90;;;;;;4937248;29;20035;-73
2022/07/13 04:50:22;;;;;;;1.98;0.60;;;14.30;99.90;;;;;;4937297;29;20031;-72
2022/07/13 04:52:49;;;;;;;2.20;0.80;;;14.30;99.90;;;;;;4954575;29;20023;-73
2022/07/13 04:55:16;;;;;;;2.17;0.80;;;14.20;99.90;;;;;;4954450;29;20059;-72
2022/07/13 04:57:44;;;;;;;1.00;0.60;;;14.30;99.90;;;;;;4954455;29;20090;-74
2022/07/13 05:00:12;;;;;;;2.47;0.70;;;14.30;99.90;;;;;;4954428;29;20029;-73
2022/07/13 05:02:40;;;;;;;1.60;0.70;;;14.30;99.90;;;;;;4937269;29;20400;-74
2022/07/13 05:05:09;;;;;;;2.08;0.60;;;14.20;99.90;;;;;;4936907;29;20480;-73
2022/07/13 05:07:36;;;;;;;0.85;0.75;;;14.10;99.90;;;;;;4937163;29;20019;-74
2022/07/13 05:10:04;;;;;;;1.73;0.70;;;14.10;99.90;;;;;;4937145;29;20026;-74
2022/07/13 05:12:34;;;;;;;1.27;0.80;;;14.00;99.90;;;;;;4954227;29;20031;-74
2022/07/13 05:15:01;;;;;;;1.52;0.57;;;14.00;99.90;;;;;;4954639;29;20019;-73
2022/07/13 05:17:30;;;;;;;2.10;1.00;;;13.90;99.90;;;;;;4955113;28;20027;-74
2022/07/13 05:19:57;;;;;;;1.90;0.60;;;13.90;99.90;;;;;;4958153;29;20027;-73
2022/07/13 05:22:24;;;;;;;1.77;0.98;;;13.80;99.90;;;;;;4958200;29;20023;-74
2022/07/13 05:24:55;;;;;;;3.13;0.80;;;13.90;99.90;;;;;;4940675;29;20472;-74
2022/07/13 05:27:23;;;;;;;2.28;0.65;;;13.80;99.90;;;;;;4957872;29;20023;-73
2022/07/13 05:29:50;;;;;;;1.25;0.60;;;13.80;99.90;;;;;;4957853;29;20472;-73
2022/07/13 05:32:18;;;;;;;2.63;0.85;;;13.80;99.90;;;;;;4940337;29;20031;-73
2022/07/13 05:34:45;;;;;;;1.55;0.70;;;13.80;99.90;;;;;;4958057;29;20439;-74
2022/07/13 05:37:15;;;;;;;1.85;0.63;;;13.90;99.90;;;;;;4940343;29;20117;-73
2022/07/13 05:39:46;;;;;;;2.45;0.75;;;13.80;99.90;;;;;;4957690;29;20388;-74
2022/07/13 05:42:14;;;;;;;1.88;0.70;;;13.80;99.90;;;;;;4940280;29;20028;-74
2022/07/13 05:44:42;;;;;;;1.70;0.60;;;13.80;99.90;;;;;;4957583;29;20027;-74
2022/07/13 05:47:09;;;;;;;3.22;0.80;;;13.80;99.90;;;;;;4940287;29;20035;-74
2022/07/13 05:49:37;;;;;;;1.75;0.98;;;13.80;99.90;;;;;;4957438;29;20114;-74
2022/07/13 05:52:04;;;;;;;1.23;0.60;;;13.70;99.90;;;;;;4939974;29;20031;-74
2022/07/13 05:54:32;;;;;;;1.88;0.80;;;13.70;99.90;;;;;;4940120;29;20030;-73
2022/07/13 05:56:59;;;;;;;2.35;0.70;;;13.70;99.90;;;;;;4957810;29;20020;-73
2022/07/13 05:59:27;;;;;;;1.30;0.70;;;13.60;99.90;;;;;;4940134;29;20046;-74
2022/07/13 06:01:54;;;;;;;1.10;0.75;;;13.60;99.90;;;;;;4939930;29;20035;-74
2022/07/13 06:04:21;;;;;;;1.58;0.50;;;13.60;99.90;;;;;;4939821;29;20023;-73
2022/07/13 06:06:49;;;;;;;2.22;0.57;;;13.50;99.90;;;;;;4939739;29;20051;-72
2022/07/13 06:09:16;;;;;;;1.02;0.50;;;13.40;99.90;;;;;;4957441;29;20087;-74
2022/07/13 06:11:46;;;;;;;1.73;0.70;;;13.40;99.90;;;;;;4956994;29;20038;-72
2022/07/13 06:14:14;;;;;;;3.00;0.50;;;13.20;99.90;;;;;;4957189;29;20461;-72
2022/07/13 06:16:41;;;;;;;2.33;1.00;;;13.00;99.90;;;;;;4957282;29;20031;-72
2022/07/13 06:19:08;;;;;;;3.40;0.80;;;12.90;99.90;;;;;;4956943;29;20027;-72
2022/07/13 06:21:35;;;;;;;2.22;0.98;;;12.80;99.90;;;;;;4939663;29;20030;-73
2022/07/13 06:24:03;;;;;;;1.70;1.00;;;12.70;99.90;;;;;;4956804;29;20510;-72
2022/07/13 06:26:31;;;;;;;4.88;1.08;;;12.60;99.90;;;;;;4939456;29;20507;-72
2022/07/13 06:28:58;;;;;;;1.52;1.00;;;12.50;99.90;;;;;;4955681;28;20034;-72
2022/07/13 06:31:25;;;;;;;2.20;0.90;;;12.40;99.90;;;;;;4957036;29;20106;-72
2022/07/13 06:33:53;;;;;;;1.15;0.80;;;12.30;99.90;;;;;;4939288;29;20030;-72
2022/07/13 06:36:20;;;;;;;1.42;0.98;;;12.20;99.90;;;;;;4939331;29;20027;-72
2022/07/13 06:38:49;;;;;;;3.22;1.30;;;12.20;99.90;;;;;;4939293;29;20372;-72
2022/07/13 06:41:17;;;;;;;2.45;1.15;;;12.10;99.90;;;;;;4939210;29;20510;-73
2022/07/13 06:43:44;;;;;;;2.45;0.98;;;12.10;99.90;;;;;;4956441;29;20472;-72
2022/07/13 06:46:12;;;;;;;1.63;1.10;;;12.10;99.90;;;;;;4956349;29;20035;-72
2022/07/13 06:48:39;;;;;;;2.20;1.10;;;12.00;99.90;;;;;;4938835;29;20118;-72
2022/07/13 06:51:06;;;;;;;1.77;1.15;;;12.00;99.90;;;;;;4956266;29;20118;-72
2022/07/13 06:53:34;;;;;;;1.30;0.90;;;12.00;99.90;;;;;;4956292;29;20392;-72
2022/07/13 06:56:01;;;;;;;1.83;0.80;;;11.90;99.90;;;;;;4939076;29;20023;-73
2022/07/13 06:58:28;;;;;;;2.70;0.80;;;11.90;99.90;;;;;;4938860;29;20062;-72
2022/07/13 07:00:56;;;;;;;1.40;0.90;;;11.90;99.90;;;;;;4938678;29;20027;-72
2022/07/13 07:03:23;;;;;;;0.82;0.50;;;12.00;99.90;;;;;;4938722;29;20043;-72
2022/07/13 07:05:51;;;;;;;2.60;0.93;;;12.00;99.90;;;;;;4938737;29;20066;-72
2022/07/13 07:08:19;;;;;;;1.00;0.80;;;12.10;99.90;;;;;;4956253;29;20109;-72
2022/07/13 07:10:47;;;;;;;1.75;0.70;;;12.10;99.90;;;;;;4956051;29;20023;-72
2022/07/13 07:13:15;;;;;;;1.52;1.00;;;12.10;99.90;;;;;;4956119;29;20065;-72
2022/07/13 07:15:42;;;;;;;2.55;1.30;;;12.10;99.90;;;;;;4938754;29;20555;-73
2022/07/13 07:18:12;;;;;;;2.00;1.42;;;12.10;99.90;;;;;;4938613;29;20027;-73
2022/07/13 07:20:39;;;;;;;1.40;1.00;;;12.10;99.90;;;;;;4938672;29;20031;-73
2022/07/13 07:23:07;;;;;;;2.22;1.17;;;12.20;99.90;;;;;;4955795;29;20027;-72
2022/07/13 07:25:34;;;;;;;1.13;0.82;;;12.20;99.90;;;;;;4955740;29;20023;-73
2022/07/13 07:28:02;;;;;;;1.05;0.75;;;12.10;99.90;;;;;;4955812;29;20023;-73
2022/07/13 07:30:29;;;;;;;1.27;0.90;;;12.10;99.90;;;;;;4955654;29;20028;-71
2022/07/13 07:32:57;;;;;;;2.47;0.90;;;12.10;99.90;;;;;;4955632;29;20023;-73
2022/07/13 07:35:24;;;;;;;2.35;1.13;;;12.10;99.90;;;;;;4955651;29;20027;-73
2022/07/13 07:37:52;;;;;;;1.48;1.05;;;12.10;99.90;;;;;;4938250;29;20026;-73
2022/07/13 07:40:19;;;;;;;1.75;1.00;;;12.10;99.90;;;;;;4955154;28;20441;-72
2022/07/13 07:42:46;;;;;;;2.70;2.17;;;12.00;99.90;;;;;;4938242;29;20023;-73
2022/07/13 07:45:14;;;;;;;2.55;1.50;;;12.10;99.90;;;;;;4938190;29;20488;-73
2022/07/13 07:47:41;;;;;;;1.95;1.15;;;12.10;99.90;;;;;;4955443;29;20106;-73
2022/07/13 07:50:09;;;;;;;2.05;1.08;;;12.10;99.90;;;;;;4938095;29;20035;-73
2022/07/13 07:52:36;;;;;;;1.23;0.93;;;12.10;99.90;;;;;;4955695;29;20118;-73
2022/07/13 07:55:04;;;;;;;2.53;1.00;;;12.20;99.90;;;;;;4937984;29;20065;-73
2022/07/13 07:57:31;;;;;;;2.50;1.23;;;12.20;99.90;;;;;;4955292;29;20446;-72
2022/07/13 07:59:59;;;;;;;2.10;1.00;;;12.20;99.90;;;;;;4955218;29;20024;-73
2022/07/13 08:02:26;;;;;;;1.92;1.10;;;12.10;99.90;;;;;;4937895;29;20345;-72
2022/07/13 08:04:53;;;;;;;2.13;1.30;;;12.10;99.90;;;;;;4954904;29;20027;-73
2022/07/13 08:07:21;;;;;;;2.95;1.50;;;12.10;99.90;;;;;;4937858;29;20058;-72
2022/07/13 08:09:48;;;;;;;2.45;1.10;;;12.10;99.90;;;;;;4937692;29;20035;-71
2022/07/13 08:12:15;;;;;;;1.70;0.80;;;12.10;99.90;;;;;;4955092;29;20432;-71
2022/07/13 08:14:42;;;;;;;1.95;1.20;;;12.10;99.90;;;;;;4955044;29;20097;-72
2022/07/13 08:17:10;;;;;;;2.17;1.42;;;12.20;99.90;;;;;;4955026;29;20023;-72
2022/07/13 08:19:37;;;;;;;2.13;0.90;;;12.10;99.90;;;;;;4937755;29;20030;-73
2022/07/13 08:22:05;;;;;;;2.55;1.00;;;12.10;99.90;;;;;;4937511;29;20031;-72
2022/07/13 08:24:32;;;;;;;2.08;1.30;;;12.10;99.90;;;;;;4954797;29;20369;-72
2022/07/13 08:27:01;;;;;;;3.85;1.40;;;12.10;99.90;;;;;;4954837;29;20551;-72
2022/07/13 08:29:31;;;;;;;2.53;1.30;;;12.10;99.90;;;;;;4954896;29;20023;-73
2022/07/13 08:31:59;;;;;;;3.33;1.40;;;12.00;99.90;;;;;;4954734;29;20034;-73
2022/07/13 08:40:06;;;;;;;2.22;1.05;;;11.70;99.90;;;;;;4955141;29;20078;-73
2022/07/13 08:42:33;;;;;;;3.15;1.35;;;11.60;99.90;;;;;;4937378;29;20035;-72
2022/07/13 08:45:01;;;;;;;5.45;1.52;;;11.60;99.90;;;;;;4954726;29;20035;-72
2022/07/13 08:47:32;;;;;;;7.60;1.65;;;11.60;99.90;;;;;;4937473;29;20031;-73
2022/07/13 08:50:03;;;;;;;12.98;3.17;;;11.60;99.90;;;;;;4954676;29;20023;-73
2022/07/13 08:52:31;;;;;;;8.43;1.98;;;11.60;99.90;;;;;;4955342;28;20087;-72
2022/07/13 08:55:00;;;;;;;11.48;2.60;;;11.70;99.90;;;;;;4941359;29;20038;-73
2022/07/13 08:57:28;;;;;;;8.48;2.05;;;11.70;99.90;;;;;;4941265;29;20388;-72
2022/07/13 08:59:55;;;;;;;9.73;2.05;;;11.60;99.90;;;;;;4941186;29;20030;-70
2022/07/13 09:02:22;;;;;;;6.95;2.10;;;11.50;99.90;;;;;;4958407;29;20196;-72
2022/07/13 09:04:50;;;;;;;8.02;2.47;;;11.50;99.90;;;;;;4958431;29;20054;-70
2022/07/13 09:07:17;;;;;;;6.72;1.67;;;11.30;99.90;;;;;;4941034;29;20047;-70
2022/07/13 09:09:45;;;;;;;5.88;2.17;;;11.30;99.90;;;;;;4941123;29;20023;-71
2022/07/13 09:12:31;;;;;;;4.80;1.70;;;11.20;99.90;;;;;;4940954;29;20047;-71
2022/07/13 09:15:02;;;;;;;8.75;1.88;;;11.20;99.90;;;;;;4941026;29;20496;-71
2022/07/13 09:17:31;;;;;;;6.63;2.03;;;11.20;99.90;;;;;;4940998;29;20069;-72
2022/07/13 09:20:03;;;;;;;5.50;2.17;;;11.20;99.90;;;;;;4958639;29;20114;-72
2022/07/13 09:22:30;;;;;;;5.18;2.42;;;11.20;99.90;;;;;;4958170;29;20034;-71
2022/07/13 09:24:58;;;;;;;4.85;2.42;;;11.30;99.90;;;;;;4958096;29;20019;-70
2022/07/13 09:27:25;;;;;;;7.35;2.75;;;11.30;99.90;;;;;;4958097;29;20027;-72
2022/07/13 09:29:53;;;;;;;5.13;2.10;;;11.30;99.90;;;;;;4958059;29;20034;-72
2022/07/13 09:32:22;;;;;;;5.35;2.10;;;11.30;99.90;;;;;;4957819;29;20111;-72
2022/07/13 09:34:52;;;;;;;4.90;2.38;;;11.20;99.90;;;;;;4957891;29;20027;-72
2022/07/13 09:37:22;;;;;;;3.47;1.88;;;11.20;99.90;;;;;;4940559;29;20369;-71
2022/07/13 09:40:09;;;;;;;3.50;1.57;;;11.20;99.90;;;;;;4957934;29;20027;-72
2022/07/13 09:42:38;;;;;;;2.95;1.42;;;11.20;99.90;;;;;;4940561;29;20396;-72
2022/07/13 09:48:00;;;;;;;3.60;1.20;;;11.10;99.90;;;;;;4958092;29;20038;-70
2022/07/13 09:50:41;;;;;;;2.92;1.70;;;11.10;99.90;;;;;;4957614;29;20019;-71
2022/07/13 09:53:33;;;;;;;3.38;1.48;;;11.10;99.90;;;;;;4957634;29;20027;-71
2022/07/13 09:56:02;;;;;;;2.40;1.67;;;11.00;99.90;;;;;;4957771;29;20023;-70
2022/07/13 09:58:35;;;;;;;2.85;1.70;;;11.00;99.90;;;;;;4940269;29;20055;-71
2022/07/13 10:01:03;;;;;;;5.70;2.28;;;10.90;99.90;;;;;;4940103;29;20078;-71
2022/07/13 10:03:31;;;;;;;4.15;1.92;;;11.00;99.90;;;;;;4957255;28;20024;-71
2022/07/13 10:06:01;;;;;;;5.63;2.42;;;10.90;99.90;;;;;;4957217;29;20039;-71
2022/07/13 10:08:30;;;;;;;4.57;2.70;;;10.90;99.90;;;;;;4957416;29;20027;-71
2022/07/13 10:10:57;;;;;;;4.50;2.45;;;10.80;99.90;;;;;;4940011;29;20032;-71
2022/07/13 10:13:24;;;;;;;5.70;2.50;;;10.80;99.90;;;;;;4939976;29;20023;-71
2022/07/13 10:15:52;;;;;;;6.75;3.00;;;10.80;99.90;;;;;;4957292;29;20027;-70
2022/07/13 10:18:24;;;;;;;7.22;2.78;;;10.80;99.90;;;;;;4957531;29;20106;-70
2022/07/13 10:21:13;;;;;;;5.35;2.80;;;10.70;99.90;;;;;;4957450;29;20480;-71
2022/07/13 10:23:41;;;;;;;7.65;3.15;;;10.70;99.90;;;;;;4957188;29;20020;-72
2022/07/13 10:26:22;;;;;;;5.97;2.92;;;10.70;99.90;;;;;;4957105;29;20030;-71
2022/07/13 10:29:14;;;;;;;5.80;2.72;;;10.70;99.90;;;;;;4957040;29;20023;-71
2022/07/13 10:31:42;;;;;;;7.15;3.10;;;10.60;99.90;;;;;;4956986;29;20027;-71
2022/07/13 10:34:12;;;;;;;5.78;3.10;;;10.50;99.90;;;;;;4956929;29;20392;-72
2022/07/13 10:36:53;;;;;;;7.67;3.80;;;10.50;99.90;;;;;;4939517;29;20492;-72
2022/07/13 10:39:25;;;;;;;7.75;3.40;;;10.50;99.90;;;;;;4956875;29;20480;-72
2022/07/13 10:42:10;;;;;;;6.38;3.35;;;10.50;99.90;;;;;;4956895;29;20102;-72
2022/07/13 10:44:42;;;;;;;8.23;3.60;;;10.50;99.90;;;;;;4956921;29;20031;-73
2022/07/13 10:47:12;;;;;;;6.57;3.38;;;10.50;99.90;;;;;;4956776;29;20045;-72
2022/07/13 10:49:52;;;;;;;7.32;4.15;;;10.50;99.90;;;;;;4939415;29;20053;-72
2022/07/13 10:52:25;;;;;;;5.80;4.00;;;10.40;99.90;;;;;;4956620;29;20115;-72
2022/07/13 10:57:33;;;;;;;7.80;3.83;;;10.50;99.90;;;;;;4956811;29;20111;-72
2022/07/13 11:00:18;;;;;;;6.72;3.47;;;10.50;99.90;;;;;;4956786;29;20023;-72
2022/07/13 11:02:55;;;;;;;8.25;3.78;;;10.40;99.90;;;;;;4939058;29;20088;-72
2022/07/13 11:05:29;;;;;;;6.65;3.17;;;10.40;99.90;;;;;;4938863;29;20050;-72
2022/07/13 11:07:57;;;;;;;7.03;3.55;;;10.40;99.90;;;;;;4956765;29;20042;-72
2022/07/13 11:10:33;;;;;;;7.93;3.65;;;10.40;99.90;;;;;;4939368;29;20027;-72
2022/07/13 11:13:10;;;;;;;7.97;3.58;;;10.40;99.90;;;;;;4956252;29;20055;-72
2022/07/13 11:15:52;;;;;;;3.83;2.72;;;10.40;99.90;;;;;;4938314;29;20033;-72
2022/07/13 11:18:25;;;;;;;5.35;2.85;;;10.40;99.90;;;;;;4956176;29;20027;-72
2022/07/13 11:21:29;;;;;;;4.50;2.85;;;10.40;99.90;;;;;;4956601;29;20548;-72
2022/07/13 11:27:03;;;;;;;4.22;3.00;;;10.40;99.90;;;;;;4956004;29;20428;-71
2022/07/13 11:29:53;;;;;;;3.85;2.80;;;10.30;99.90;;;;;;4955822;29;20024;-70
2022/07/13 11:32:21;;;;;;;5.80;2.97;;;10.20;99.90;;;;;;4938934;29;20031;-70
2022/07/13 11:34:49;;;;;;;6.50;3.50;;;10.20;99.90;;;;;;4955842;29;20120;-71
2022/07/13 11:37:23;;;;;;;5.07;3.30;;;10.20;99.90;;;;;;4955719;29;20074;-71
2022/07/13 11:39:50;;;;;;;4.63;3.58;;;10.10;99.90;;;;;;4955815;29;20103;-71
2022/07/13 11:42:23;;;;;;;3.35;2.83;;;10.10;99.90;;;;;;4938319;29;20031;-71
2022/07/13 11:44:53;;;;;;;3.88;3.17;;;10.10;99.90;;;;;;4955671;29;20023;-71
2022/07/13 11:47:21;;;;;;;3.85;3.45;;;10.00;99.90;;;;;;4955947;29;20443;-71
2022/07/13 11:49:50;;;;;;;3.67;2.80;;;10.00;99.90;;;;;;4938185;29;20129;-71
2022/07/13 11:52:29;;;;;;;4.28;3.17;;;10.00;99.90;;;;;;4938131;29;20119;-71
2022/07/13 11:55:06;;;;;;;3.83;2.70;;;10.10;99.90;;;;;;4955385;29;20019;-70
2022/07/13 11:57:35;;;;;;;5.18;2.85;;;10.10;99.90;;;;;;4955331;29;20038;-70
2022/07/13 12:00:06;;;;;;;3.90;3.35;;;10.10;99.90;;;;;;4938069;29;20023;-69
2022/07/13 12:02:36;;;;;;;3.42;3.08;;;10.10;99.90;;;;;;4955493;29;20031;-70
2022/07/13 12:05:03;;;;;;;5.03;2.93;;;10.10;99.90;;;;;;4937499;29;20403;-70
2022/07/13 12:07:31;;;;;;;5.57;3.20;;;10.10;99.90;;;;;;4937856;29;20481;-70
2022/07/13 12:10:01;;;;;;;4.03;3.10;;;10.10;99.90;;;;;;4955137;29;20027;-71
2022/07/13 12:12:30;;;;;;;4.85;3.72;;;10.10;99.90;;;;;;4954986;29;20077;-71
2022/07/13 12:14:59;;;;;;;4.10;2.85;;;10.10;99.90;;;;;;4937825;29;20024;-71
2022/07/13 12:17:28;;;;;;;5.07;2.83;;;10.00;99.90;;;;;;4955026;29;20019;-71
2022/07/13 12:20:15;;;;;;;3.38;3.08;;;10.00;99.90;;;;;;4937589;29;20027;-71
2022/07/13 12:22:53;;;;;;;3.60;3.03;;;10.00;99.90;;;;;;4937694;29;20038;-70
2022/07/13 12:25:28;;;;;;;3.88;3.20;;;10.00;99.90;;;;;;4955181;29;20034;-70
2022/07/13 12:27:59;;;;;;;4.20;3.20;;;10.00;99.90;;;;;;4954833;28;20027;-71
2022/07/13 12:30:27;;;;;;;4.05;3.30;;;10.10;99.90;;;;;;4937504;29;20055;-71
2022/07/13 12:32:59;;;;;;;4.28;3.05;;;10.00;99.90;;;;;;4937392;29;20078;-70
2022/07/13 12:35:29;;;;;;;4.57;3.38;;;10.10;99.90;;;;;;4954654;29;20019;-70
2022/07/13 12:37:58;;;;;;;5.68;3.80;;;10.10;99.90;;;;;;4937367;29;20034;-70
2022/07/13 12:40:42;;;;;;;3.50;2.83;;;10.10;99.90;;;;;;4954668;29;20023;-69
2022/07/13 12:43:26;;;;;;;4.80;3.72;;;10.10;99.90;;;;;;4954983;29;20019;-69
2022/07/13 12:45:59;;;;;;;4.60;3.47;;;10.10;99.90;;;;;;4954514;29;20027;-70
2022/07/13 12:48:29;;;;;;;3.50;2.85;;;10.00;99.90;;;;;;4954827;29;20495;-69
2022/07/13 12:50:58;;;;;;;5.07;3.20;;;10.10;99.90;;;;;;4954570;29;20035;-70
2022/07/13 12:53:45;;;;;;;3.42;2.92;;;10.10;99.90;;;;;;4937237;29;20036;-70
2022/07/13 12:56:14;;;;;;;3.95;2.95;;;10.00;99.90;;;;;;4954086;29;20117;-71
2022/07/13 12:58:47;;;;;;;3.00;2.70;;;10.00;99.90;;;;;;4954589;29;20068;-70
2022/07/13 13:01:28;;;;;;;3.20;2.90;;;10.00;99.90;;;;;;4954593;29;20047;-70
2022/07/13 13:03:56;;;;;;;6.05;3.72;;;10.00;99.90;;;;;;4954518;29;20396;-70
2022/07/13 13:06:23;;;;;;;4.97;2.65;;;9.90;99.90;;;;;;4954260;29;20412;-70
2022/07/13 13:08:50;;;;;;;3.67;2.95;;;9.90;99.90;;;;;;4954511;29;20038;-70
2022/07/13 13:11:18;;;;;;;3.15;2.85;;;10.00;99.90;;;;;;4954400;29;20023;-70
2022/07/13 13:13:45;;;;;;;3.47;2.70;;;10.00;99.90;;;;;;4936992;29;20507;-71